Time;durP1;ratioP1;P1;durP2;ratioP2;P2;SDS_P1;SDS_P2;PMS_P1;PMS_P2;Temp;Humidity;BMP_temperature;BMP_pressure;BME280_temperature;BME280_humidity;BME280_pressure;Samples;Min_cycle;Max_cycle;Signal;HPM_P1;HPM_P2
2021/12/13 00:01:38;;;;;;;3.85;3.60;;;;;;;7.78;100.00;101691.88;5049839;28;20045;-85
2021/12/13 00:04:34;;;;;;;4.20;3.22;;;;;;;7.79;100.00;101690.16;5049633;28;20568;-86
2021/12/13 00:07:14;;;;;;;3.63;3.30;;;;;;;7.79;100.00;101692.75;5053556;28;20036;-85
2021/12/13 00:09:46;;;;;;;4.15;3.75;;;;;;;7.81;100.00;101704.09;5034418;28;20052;-86
2021/12/13 00:12:32;;;;;;;4.25;3.85;;;;;;;7.82;100.00;101695.41;5030218;28;20504;-86
2021/12/13 00:15:02;;;;;;;3.85;3.53;;;;;;;7.83;100.00;101704.13;5013966;28;20094;-86
2021/12/13 00:17:45;;;;;;;4.07;3.50;;;;;;;7.85;100.00;101700.69;5014990;28;20599;-86
2021/12/13 00:20:41;;;;;;;4.38;3.85;;;;;;;7.84;100.00;101701.53;5038815;28;20564;-86
2021/12/13 00:23:25;;;;;;;3.45;3.15;;;;;;;7.86;100.00;101706.78;5035433;28;20045;-87
2021/12/13 00:25:56;;;;;;;4.50;4.10;;;;;;;7.87;100.00;101695.50;5037728;28;20076;-86
2021/12/13 00:28:26;;;;;;;3.72;3.22;;;;;;;7.87;100.00;101706.81;5018301;28;20050;-86
2021/12/13 00:31:08;;;;;;;3.72;3.42;;;;;;;7.88;100.00;101707.69;5026255;28;20046;-86
2021/12/13 00:34:01;;;;;;;4.30;3.45;;;;;;;7.89;100.00;101706.84;4995923;28;20089;-86
2021/12/13 00:36:40;;;;;;;3.90;3.33;;;;;;;7.88;100.00;101708.56;5039377;28;20052;-85
2021/12/13 00:39:24;;;;;;;3.70;3.40;;;;;;;7.91;100.00;101707.75;5022959;28;20057;-86
2021/12/13 00:41:54;;;;;;;4.25;3.85;;;;;;;7.91;100.00;101713.88;5012679;28;20511;-86
2021/12/13 00:44:33;;;;;;;4.53;3.75;;;;;;;7.93;100.00;101706.06;4991463;28;20073;-86
2021/12/13 00:47:08;;;;;;;3.78;3.47;;;;;;;7.93;100.00;101711.28;5033003;28;20069;-86
2021/12/13 00:49:40;;;;;;;3.95;3.53;;;;;;;7.93;100.00;101719.97;5036791;28;20077;-86
2021/12/13 00:52:16;;;;;;;4.22;3.85;;;;;;;7.92;100.00;101720.81;5010115;28;20048;-85
2021/12/13 00:54:44;;;;;;;4.38;3.67;;;;;;;7.92;100.00;101717.34;5008823;28;20607;-84
2021/12/13 00:57:43;;;;;;;4.38;3.65;;;;;;;7.94;100.00;101721.72;5018861;28;20156;-86
2021/12/13 01:00:41;;;;;;;4.72;3.90;;;;;;;7.94;100.00;101726.06;5012927;28;20053;-86
2021/12/13 01:03:35;;;;;;;4.47;4.07;;;;;;;7.94;100.00;101724.34;5037401;28;20187;-85
2021/12/13 01:06:59;;;;;;;4.68;3.90;;;;;;;7.94;100.00;101726.94;5021302;28;20025;-86
2021/12/13 01:10:00;;;;;;;7.97;4.68;;;;;;;7.96;100.00;101732.19;5028819;28;20096;-86
2021/12/13 01:12:28;;;;;;;4.13;3.72;;;;;;;7.97;100.00;101735.69;5042081;28;20053;-86
2021/12/13 01:15:28;;;;;;;7.28;4.68;;;;;;;7.98;100.00;101740.03;5067404;28;20052;-84
2021/12/13 01:18:03;;;;;;;5.97;5.35;;;;;;;7.99;100.00;101741.78;5025838;28;20056;-86
2021/12/13 01:20:55;;;;;;;6.85;5.43;;;;;;;8.00;100.00;101749.63;5001511;28;20051;-86
2021/12/13 01:23:38;;;;;;;8.13;5.07;;;;;;;8.01;100.00;101740.97;5026472;28;20626;-86
2021/12/13 01:26:27;;;;;;;6.28;5.15;;;;;;;8.03;100.00;101749.72;5031619;28;20453;-84
2021/12/13 01:29:01;;;;;;;7.05;6.18;;;;;;;8.06;100.00;101752.38;5035256;28;20045;-86
2021/12/13 01:31:38;;;;;;;;;;;;;;;8.06;100.00;101752.38;5032183;28;20053;-86
2021/12/13 01:34:09;;;;;;;10.02;6.72;;;;;;;8.09;100.00;101759.38;5036995;28;19924;-85
2021/12/13 01:36:49;;;;;;;8.48;6.57;;;;;;;8.09;100.00;101759.38;5038243;28;20041;-87
2021/12/13 01:39:27;;;;;;;9.40;7.55;;;;;;;8.10;100.00;101758.53;5056565;28;20140;-85
2021/12/13 01:42:17;;;;;;;8.40;6.05;;;;;;;8.13;100.00;101763.78;5018551;28;20286;-84
2021/12/13 01:44:52;;;;;;;11.85;6.50;;;;;;;8.12;100.00;101759.41;5053482;28;20044;-83
2021/12/13 01:47:26;;;;;;;10.48;7.35;;;;;;;8.15;100.00;101756.91;5068271;28;20524;-85
2021/12/13 01:50:08;;;;;;;8.88;6.25;;;;;;;8.15;100.00;101753.38;5032335;28;20045;-86
2021/12/13 01:52:39;;;;;;;11.77;7.13;;;;;;;8.16;100.00;101757.75;5053702;28;20037;-83
2021/12/13 01:55:17;;;;;;;13.05;7.63;;;;;;;8.17;100.00;101763.00;5064029;28;20045;-84
2021/12/13 01:57:56;;;;;;;9.90;7.13;;;;;;;8.18;100.00;101762.16;5054113;28;20500;-85
2021/12/13 02:00:44;;;;;;;9.45;7.60;;;;;;;8.19;100.00;101763.91;5061791;28;20054;-85
2021/12/13 02:03:13;;;;;;;10.65;6.10;;;;;;;8.20;100.00;101756.97;5058888;28;20049;-84
2021/12/13 02:05:39;;;;;;;10.60;7.43;;;;;;;8.22;100.00;101763.97;5056647;28;20049;-84
2021/12/13 02:08:15;;;;;;;10.40;7.22;;;;;;;8.23;100.00;101767.47;5047827;28;20504;-84
2021/12/13 02:10:50;;;;;;;10.55;7.28;;;;;;;8.22;100.00;101763.97;5066041;28;20040;-84
2021/12/13 02:13:25;;;;;;;8.32;6.03;;;;;;;8.22;100.00;101758.75;5014793;28;20056;-84
2021/12/13 02:18:52;;;;;;;10.68;7.05;;;;;;;8.24;100.00;101750.97;5054512;28;20506;-86
2021/12/13 02:21:35;;;;;;;11.02;7.47;;;;;;;8.24;100.00;101753.59;5035811;28;20053;-86
2021/12/13 02:24:12;;;;;;;10.35;7.13;;;;;;;8.24;100.00;101762.28;5055954;28;20048;-84
2021/12/13 02:26:45;;;;;;;12.85;8.38;;;;;;;8.24;100.00;101761.41;5035477;28;20045;-85
2021/12/13 02:29:35;;;;;;;11.10;8.40;;;;;;;8.26;100.00;101763.16;5071548;28;20048;-84
2021/12/13 02:32:05;;;;;;;14.25;8.85;;;;;;;8.28;100.00;101773.66;5049690;28;20128;-83
2021/12/13 02:34:33;;;;;;;12.38;9.30;;;;;;;8.28;100.00;101777.13;5055450;28;20037;-87
2021/12/13 02:37:01;;;;;;;13.40;9.30;;;;;;;8.28;100.00;101774.53;5053697;28;20048;-86
2021/12/13 02:39:39;;;;;;;18.80;10.60;;;;;;;8.31;100.00;101783.28;5020328;28;20098;-84
2021/12/13 02:42:09;;;;;;;20.17;11.18;;;;;;;8.32;100.00;101774.56;5020925;28;20283;-85
2021/12/13 02:44:47;;;;;;;19.52;11.20;;;;;;;8.38;100.00;101769.47;5031733;28;20051;-85
2021/12/13 02:47:35;;;;;;;18.50;12.18;;;;;;;8.38;100.00;101772.06;5038564;28;20049;-86
2021/12/13 02:50:04;;;;;;;18.98;12.30;;;;;;;8.39;100.00;101769.50;5065656;28;20138;-86
2021/12/13 02:52:31;;;;;;;20.50;12.48;;;;;;;8.40;100.00;101776.47;5037715;28;20471;-86
2021/12/13 02:55:10;;;;;;;23.10;13.52;;;;;;;8.42;100.00;101766.06;5054220;28;20139;-86
2021/12/13 02:57:48;;;;;;;22.33;12.57;;;;;;;8.42;100.00;101766.97;5015843;28;20048;-85
2021/12/13 03:00:26;;;;;;;19.92;11.52;;;;;;;8.42;100.00;101769.56;5064400;28;20080;-83
2021/12/13 03:02:57;;;;;;;21.98;12.70;;;;;;;8.42;100.00;101769.56;5053326;28;20049;-84
2021/12/13 03:05:37;;;;;;;21.63;12.25;;;;;;;8.44;100.00;101780.03;5040771;28;20044;-84
2021/12/13 03:08:18;;;;;;;20.67;12.57;;;;;;;8.44;100.00;101777.41;5066105;28;20045;-86
2021/12/13 03:10:51;;;;;;;26.35;15.02;;;;;;;8.42;100.00;101782.59;5035757;28;20053;-85
2021/12/13 03:13:20;;;;;;;25.58;13.63;;;;;;;8.43;100.00;101775.66;5017246;28;20057;-83
2021/12/13 03:15:58;;;;;;;26.52;14.77;;;;;;;8.44;100.00;101783.50;5052679;28;20049;-85
2021/12/13 03:18:48;;;;;;;21.20;13.25;;;;;;;8.46;100.00;101786.19;5071314;28;20049;-85
2021/12/13 03:21:46;;;;;;;26.05;14.68;;;;;;;8.46;100.00;101783.59;5051902;28;20045;-85
2021/12/13 03:24:35;;;;;;;24.23;14.95;;;;;;;8.49;100.00;101787.97;5039900;28;20055;-85
2021/12/13 03:27:27;;;;;;;24.15;15.00;;;;;;;8.49;100.00;101783.63;5066517;28;20060;-86
2021/12/13 03:30:24;;;;;;;24.30;14.00;;;;;;;8.50;100.00;101788.00;5019771;28;20423;-86
2021/12/13 03:33:05;;;;;;;21.63;13.18;;;;;;;8.50;100.00;101779.28;5064653;28;20041;-86
2021/12/13 03:35:44;;;;;;;22.58;14.05;;;;;;;8.51;100.00;101775.81;5024465;28;20055;-86
2021/12/13 03:38:25;;;;;;;23.75;14.10;;;;;;;8.51;100.00;101775.81;5071291;28;20143;-86
2021/12/13 03:40:52;;;;;;;24.33;14.55;;;;;;;8.52;100.00;101780.19;5052251;28;20049;-86
2021/12/13 03:43:32;;;;;;;24.48;14.45;;;;;;;8.52;100.00;101778.44;5064936;28;20047;-86
2021/12/13 03:46:03;;;;;;;25.98;13.70;;;;;;;8.51;100.00;101791.47;5036162;28;20381;-84
2021/12/13 03:48:32;;;;;;;25.63;15.02;;;;;;;8.49;100.00;101786.25;5068794;28;20049;-86
2021/12/13 03:51:12;;;;;;;26.40;14.98;;;;;;;8.47;100.00;101787.94;5046771;28;20182;-86
2021/12/13 03:53:40;;;;;;;24.50;15.20;;;;;;;8.45;100.00;101794.84;5066214;28;20122;-86
2021/12/13 03:56:16;;;;;;;26.30;13.88;;;;;;;8.45;100.00;101800.06;5033779;28;20040;-86
2021/12/13 03:58:51;;;;;;;19.63;13.05;;;;;;;8.46;100.00;101804.47;5053438;28;20049;-85
2021/12/13 04:01:36;;;;;;;27.33;14.52;;;;;;;8.47;100.00;101803.59;5032733;28;20041;-84
2021/12/13 04:04:09;;;;;;;21.85;12.55;;;;;;;8.49;100.00;101806.25;5044181;28;20102;-84
2021/12/13 04:06:46;;;;;;;22.75;13.52;;;;;;;8.51;100.00;101813.22;5052012;28;20045;-84
2021/12/13 04:09:18;;;;;;;19.67;12.63;;;;;;;8.51;100.00;101812.34;5044602;28;20075;-85
2021/12/13 04:11:48;;;;;;;23.55;13.10;;;;;;;8.52;100.00;101817.59;5030556;28;20072;-86
2021/12/13 04:14:25;;;;;;;22.70;13.27;;;;;;;8.53;100.00;101816.75;5046858;28;20057;-86
2021/12/13 04:17:08;;;;;;;24.13;14.80;;;;;;;8.53;100.00;101815.88;5035245;28;20126;-84
2021/12/13 04:19:52;;;;;;;25.27;13.32;;;;;;;8.53;100.00;101819.38;5049632;28;20222;-86
2021/12/13 04:22:50;;;;;;;19.98;12.10;;;;;;;8.54;100.00;101823.75;5061894;28;20134;-86
2021/12/13 04:25:31;;;;;;;20.50;13.07;;;;;;;8.55;100.00;101819.38;5049377;28;20080;-86
2021/12/13 04:28:17;;;;;;;18.02;11.30;;;;;;;8.55;100.00;101824.59;5031284;28;20504;-84
2021/12/13 04:30:54;;;;;;;18.13;11.75;;;;;;;8.54;100.00;101822.84;5050111;28;20087;-84
2021/12/13 04:33:50;;;;;;;18.20;10.82;;;;;;;8.55;100.00;101824.59;5028476;28;20518;-86
2021/12/13 04:36:23;;;;;;;16.75;10.52;;;;;;;8.56;100.00;101822.03;5023365;28;20049;-85
2021/12/13 04:39:01;;;;;;;15.15;10.05;;;;;;;8.58;100.00;101824.69;5046910;28;20074;-84
2021/12/13 04:41:40;;;;;;;15.32;9.70;;;;;;;8.58;100.00;101829.91;5031508;28;20060;-83
2021/12/13 04:44:18;;;;;;;14.32;9.10;;;;;;;8.58;100.00;101840.34;5049324;28;20063;-84
2021/12/13 04:46:51;;;;;;;18.00;10.88;;;;;;;8.58;100.00;101841.22;5063235;28;20048;-86
2021/12/13 04:49:42;;;;;;;14.13;9.93;;;;;;;8.60;100.00;101846.44;5049593;28;20479;-86
2021/12/13 04:52:15;;;;;;;15.27;10.15;;;;;;;8.60;100.00;101844.75;5044560;28;20068;-84
2021/12/13 04:54:48;;;;;;;16.65;11.50;;;;;;;8.61;100.00;101846.47;5015618;28;20482;-85
2021/12/13 04:57:16;;;;;;;;;;;;;;;8.61;100.00;101846.47;5045454;28;20050;-86
2021/12/13 04:59:52;;;;;;;17.98;11.90;;;;;;;8.63;100.00;101840.41;5017150;28;19951;-83
2021/12/13 05:02:19;;;;;;;18.50;11.25;;;;;;;8.64;100.00;101839.56;5049734;28;20512;-83
2021/12/13 05:04:46;;;;;;;18.70;11.30;;;;;;;8.64;100.00;101852.63;5047518;28;20059;-86
2021/12/13 05:07:13;;;;;;;18.25;10.48;;;;;;;8.68;100.00;101844.88;5048390;28;20060;-86
2021/12/13 05:09:39;;;;;;;19.67;12.18;;;;;;;8.67;100.00;101842.22;5046796;28;20052;-85
2021/12/13 05:12:16;;;;;;;17.75;10.98;;;;;;;8.67;100.00;101844.81;5019783;28;20506;-85
2021/12/13 05:14:51;;;;;;;18.23;12.45;;;;;;;8.66;100.00;101846.56;5063203;28;20511;-84
2021/12/13 05:17:28;;;;;;;18.75;12.27;;;;;;;8.66;100.00;101850.94;5030492;28;20033;-84
2021/12/13 05:20:07;;;;;;;16.13;10.70;;;;;;;8.68;100.00;101851.81;5029203;28;20065;-84
2021/12/13 05:23:04;;;;;;;18.48;11.35;;;;;;;8.68;100.00;101850.09;5029198;28;20058;-85
2021/12/13 05:25:41;;;;;;;18.45;12.23;;;;;;;8.67;100.00;101850.94;5019279;28;20111;-84
2021/12/13 05:28:20;;;;;;;18.67;12.23;;;;;;;8.65;100.00;101850.03;5059621;28;20156;-86
2021/12/13 05:31:00;;;;;;;18.42;12.32;;;;;;;8.64;100.00;101850.88;5046583;28;20041;-85
2021/12/13 05:33:32;;;;;;;20.10;12.18;;;;;;;8.62;100.00;101852.59;5046828;28;20054;-86
2021/12/13 05:36:05;;;;;;;20.42;11.63;;;;;;;8.61;100.00;101854.31;5033407;28;20055;-86
2021/12/13 05:38:42;;;;;;;20.10;12.50;;;;;;;8.61;100.00;101854.31;5065792;28;20126;-86
2021/12/13 05:41:15;;;;;;;21.05;12.02;;;;;;;8.60;100.00;101852.56;5028757;28;20585;-86
2021/12/13 05:43:57;;;;;;;21.10;12.80;;;;;;;8.60;100.00;101860.41;5049167;28;20057;-85
2021/12/13 05:46:46;;;;;;;21.45;12.63;;;;;;;8.60;100.00;101860.41;5048723;28;20539;-86
2021/12/13 05:49:28;;;;;;;18.60;13.02;;;;;;;8.61;100.00;101862.13;5030635;28;20049;-84
2021/12/13 05:52:16;;;;;;;21.40;13.15;;;;;;;8.63;100.00;101862.19;5050194;28;20148;-84
2021/12/13 05:54:48;;;;;;;20.13;13.20;;;;;;;8.64;100.00;101863.91;5028730;28;20060;-86
2021/12/13 05:57:19;;;;;;;19.52;12.35;;;;;;;8.65;100.00;101865.69;5017348;28;20048;-86
2021/12/13 05:59:51;;;;;;;19.90;12.05;;;;;;;8.67;100.00;101860.50;5059655;28;20694;-86
2021/12/13 06:03:05;;;;;;;18.52;11.63;;;;;;;8.69;100.00;101859.66;5033682;28;20045;-86
2021/12/13 06:05:52;;;;;;;18.15;11.63;;;;;;;8.71;100.00;101864.94;5046185;28;20279;-86
2021/12/13 06:08:27;;;;;;;17.80;11.38;;;;;;;8.71;100.00;101857.13;5034662;28;20045;-86
2021/12/13 06:11:08;;;;;;;19.70;11.38;;;;;;;8.71;100.00;101872.78;5028504;28;20419;-86
2021/12/13 06:13:57;;;;;;;18.63;10.75;;;;;;;8.72;100.00;101874.50;5042866;28;20077;-86
2021/12/13 06:16:24;;;;;;;17.60;11.52;;;;;;;8.74;100.00;101880.66;5035299;28;20140;-86
2021/12/13 06:18:59;;;;;;;18.67;11.88;;;;;;;8.75;100.00;101885.03;5046525;28;20226;-86
2021/12/13 06:21:41;;;;;;;19.13;11.23;;;;;;;8.77;100.00;101885.91;5035536;28;20045;-85
2021/12/13 06:24:12;;;;;;;20.05;11.98;;;;;;;8.77;100.00;101880.69;5029501;28;20041;-85
2021/12/13 06:26:39;;;;;;;18.98;11.60;;;;;;;8.78;100.00;101892.91;5020197;28;20400;-86
2021/12/13 06:29:09;;;;;;;18.83;11.90;;;;;;;8.80;100.00;101901.66;5050095;28;20048;-86
2021/12/13 06:31:43;;;;;;;23.10;12.82;;;;;;;8.82;100.00;101897.31;5017092;28;20155;-85
2021/12/13 06:34:16;;;;;;;;;;;;;;;8.82;100.00;101901.69;5036870;28;20049;-86
2021/12/13 06:36:49;;;;;;;22.83;11.38;;;;;;;8.83;100.00;101896.47;5066169;28;19929;-86
2021/12/13 06:39:17;;;;;;;18.38;12.13;;;;;;;8.83;100.00;101901.69;5051392;28;20331;-86
2021/12/13 06:42:14;;;;;;;21.30;12.80;;;;;;;8.83;100.00;101911.28;5066333;28;20045;-85
2021/12/13 06:44:46;;;;;;;19.65;12.93;;;;;;;8.83;100.00;101908.66;5020674;28;20082;-85
2021/12/13 06:47:21;;;;;;;22.05;12.63;;;;;;;8.84;100.00;101910.41;5067037;28;20056;-86
2021/12/13 06:49:54;;;;;;;19.80;12.85;;;;;;;8.84;100.00;101910.41;5043997;28;20053;-85
2021/12/13 06:52:32;;;;;;;20.95;12.63;;;;;;;8.86;100.00;101906.09;5050827;28;20060;-86
2021/12/13 06:55:11;;;;;;;18.25;10.27;;;;;;;8.86;100.00;101912.19;5019451;28;20040;-86
2021/12/13 06:57:51;;;;;;;19.02;10.65;;;;;;;8.85;100.00;101915.69;5040606;28;20048;-86
2021/12/13 07:00:20;;;;;;;19.80;12.60;;;;;;;8.85;100.00;101923.50;5051972;28;20045;-86
2021/12/13 07:03:08;;;;;;;17.23;10.88;;;;;;;8.87;100.00;101920.94;5036745;28;20046;-86
2021/12/13 07:05:42;;;;;;;19.90;11.43;;;;;;;8.89;100.00;101919.19;5051966;28;20032;-85
2021/12/13 07:08:31;;;;;;;15.15;10.90;;;;;;;8.88;100.00;101930.53;5034813;28;20088;-85
2021/12/13 07:11:12;;;;;;;16.85;10.38;;;;;;;8.89;100.00;101925.31;5053117;28;20041;-85
2021/12/13 07:13:45;;;;;;;16.60;9.45;;;;;;;8.89;100.00;101927.94;5063645;28;20503;-85
2021/12/13 07:16:25;;;;;;;18.38;10.68;;;;;;;8.92;100.00;101941.03;5053120;28;20041;-86
2021/12/13 07:19:00;;;;;;;13.02;8.27;;;;;;;8.93;100.00;101947.16;5034121;28;20443;-86
2021/12/13 07:21:40;;;;;;;13.70;9.20;;;;;;;8.92;100.00;101941.03;5020204;28;20210;-86
2021/12/13 07:24:15;;;;;;;13.73;8.60;;;;;;;8.93;100.00;101934.09;5022588;28;20036;-86
2021/12/13 07:26:53;;;;;;;14.00;9.18;;;;;;;8.92;100.00;101942.78;5047951;28;20107;-85
2021/12/13 07:29:44;;;;;;;11.80;7.70;;;;;;;8.92;100.00;101948.00;5035838;28;20072;-86
2021/12/13 07:32:30;;;;;;;12.85;7.35;;;;;;;8.91;100.00;101941.00;5061855;28;20049;-85
2021/12/13 07:35:12;;;;;;;12.48;8.40;;;;;;;8.91;100.00;101952.31;5018909;28;20140;-86
2021/12/13 07:37:45;;;;;;;14.88;7.90;;;;;;;8.90;100.00;101949.69;5033412;28;20048;-85
2021/12/13 07:40:22;;;;;;;32.33;10.00;;;;;;;8.89;100.00;101948.81;5033734;28;21073;-86
2021/12/13 07:43:04;;;;;;;12.30;8.07;;;;;;;8.86;100.00;101940.91;5050457;28;20801;-86
2021/12/13 07:45:57;;;;;;;12.10;7.70;;;;;;;8.84;100.00;101940.03;5032100;28;20397;-85
2021/12/13 07:48:32;;;;;;;15.95;8.98;;;;;;;8.83;100.00;101946.09;5051572;28;20053;-84
2021/12/13 07:51:17;;;;;;;13.10;8.90;;;;;;;8.83;100.00;101947.84;5061251;28;20065;-86
2021/12/13 07:53:49;;;;;;;11.85;8.32;;;;;;;8.81;100.00;101945.16;5032385;28;20053;-86
2021/12/13 07:56:37;;;;;;;10.07;7.18;;;;;;;8.81;100.00;101954.75;5046704;28;20636;-86
2021/12/13 07:59:19;;;;;;;14.48;9.52;;;;;;;8.80;100.00;101961.72;5032847;28;20072;-86
2021/12/13 08:01:59;;;;;;;13.55;9.15;;;;;;;8.78;100.00;101960.78;5047144;28;20056;-86
2021/12/13 08:04:53;;;;;;;14.15;8.30;;;;;;;8.78;100.00;101968.63;5035922;28;20052;-86
2021/12/13 08:07:42;;;;;;;13.98;8.98;;;;;;;8.78;100.00;101968.63;5024046;28;20080;-85
2021/12/13 08:10:24;;;;;;;14.07;8.15;;;;;;;8.79;100.00;101973.00;5032587;28;20780;-86
2021/12/13 08:13:08;;;;;;;12.57;7.93;;;;;;;8.81;100.00;101980.84;5016422;28;20073;-84
2021/12/13 08:15:46;;;;;;;12.98;9.00;;;;;;;8.82;100.00;101982.63;5016481;28;20056;-86
2021/12/13 08:18:34;;;;;;;15.02;9.27;;;;;;;8.83;100.00;101987.00;5016836;28;20060;-86
2021/12/13 08:21:11;;;;;;;12.88;8.48;;;;;;;8.82;100.00;101993.06;5029514;28;20072;-85
2021/12/13 08:23:57;;;;;;;12.00;8.50;;;;;;;8.82;100.00;101986.09;5031105;28;20044;-86
2021/12/13 08:26:39;;;;;;;13.65;8.85;;;;;;;8.85;100.00;101990.50;5018938;28;20045;-85
2021/12/13 08:29:23;;;;;;;16.00;9.48;;;;;;;8.87;100.00;101994.03;5049672;28;20215;-86
2021/12/13 08:31:54;;;;;;;18.20;10.50;;;;;;;8.89;100.00;101992.31;5064497;28;20553;-86
2021/12/13 08:35:00;;;;;;;12.48;8.43;;;;;;;8.90;100.00;101992.38;5052910;28;20071;-87
2021/12/13 08:37:39;;;;;;;11.95;9.70;;;;;;;8.94;100.00;101998.50;5054914;28;20068;-86
2021/12/13 08:40:25;;;;;;;14.40;9.23;;;;;;;8.96;100.00;101999.44;5046321;28;20057;-84
2021/12/13 08:42:55;;;;;;;11.52;8.73;;;;;;;8.98;100.00;102000.34;5068300;28;20422;-86
2021/12/13 08:45:38;;;;;;;13.05;8.02;;;;;;;9.01;100.00;102013.47;5047270;28;20053;-86
2021/12/13 08:48:12;;;;;;;10.40;7.45;;;;;;;9.03;100.00;102010.88;5035022;28;20037;-86
2021/12/13 08:51:04;;;;;;;15.93;10.02;;;;;;;9.04;100.00;102013.53;5064740;28;20041;-87
2021/12/13 08:53:38;;;;;;;12.75;8.98;;;;;;;9.06;100.00;102011.81;5063596;28;20049;-86
2021/12/13 08:56:20;;;;;;;14.07;9.05;;;;;;;9.09;100.00;102011.88;5068880;28;20067;-86
2021/12/13 08:59:10;;;;;;;12.73;8.05;;;;;;;9.12;100.00;102012.81;5022499;28;20155;-86
2021/12/13 09:01:49;;;;;;;11.63;8.27;;;;;;;9.13;100.00;102017.19;5055602;28;20131;-85
2021/12/13 09:04:32;;;;;;;13.88;8.82;;;;;;;9.13;100.00;102012.81;5031108;28;20055;-86
2021/12/13 09:07:02;;;;;;;17.42;8.95;;;;;;;9.13;100.00;102012.81;5053739;28;20176;-85
2021/12/13 09:09:29;;;;;;;12.82;9.13;;;;;;;9.12;100.00;102018.03;5035509;28;20057;-86
2021/12/13 09:12:08;;;;;;;12.18;8.50;;;;;;;9.10;100.00;102018.88;5050987;28;20090;-86
2021/12/13 09:14:36;;;;;;;13.98;9.15;;;;;;;9.10;100.00;102018.88;5033416;28;20119;-86
2021/12/13 09:17:38;;;;;;;12.00;8.40;;;;;;;9.10;100.00;102024.09;5034808;28;20557;-86
2021/12/13 09:20:22;;;;;;;12.90;9.05;;;;;;;9.14;100.00;102029.38;5050935;28;20507;-86
2021/12/13 09:23:08;;;;;;;13.70;9.52;;;;;;;9.14;100.00;102031.97;5049352;28;20049;-86
2021/12/13 09:25:51;;;;;;;16.15;10.63;;;;;;;9.16;100.00;102028.53;5052302;28;20488;-86
2021/12/13 09:28:31;;;;;;;14.88;9.95;;;;;;;9.21;100.00;102034.75;5046720;28;20405;-86
2021/12/13 09:31:13;;;;;;;14.75;10.13;;;;;;;9.26;100.00;102037.44;5061977;28;20044;-85
2021/12/13 09:33:49;;;;;;;15.85;10.55;;;;;;;9.30;100.00;102035.78;5044071;28;20044;-86
2021/12/13 09:36:22;;;;;;;17.10;10.07;;;;;;;9.34;100.00;102045.44;5034742;28;20072;-86
2021/12/13 09:39:11;;;;;;;12.55;9.23;;;;;;;9.37;100.00;102041.16;5053881;28;20110;-86
2021/12/13 09:41:57;;;;;;;12.75;9.15;;;;;;;9.37;100.00;102043.78;5048928;28;20045;-85
2021/12/13 09:44:44;;;;;;;13.63;9.15;;;;;;;9.41;100.00;102044.69;5033234;28;21311;-86
2021/12/13 09:47:25;;;;;;;14.27;9.73;;;;;;;9.41;100.00;102045.59;5043521;28;20040;-86
2021/12/13 09:49:58;;;;;;;14.60;9.55;;;;;;;9.43;100.00;102043.84;5036656;28;20132;-86
2021/12/13 09:52:46;;;;;;;14.73;8.88;;;;;;;9.46;100.00;102045.66;5066927;28;20095;-86
2021/12/13 09:55:33;;;;;;;14.70;10.55;;;;;;;9.46;100.00;102047.38;5042141;28;20180;-84
2021/12/13 09:58:29;;;;;;;15.27;10.00;;;;;;;9.46;100.00;102055.22;5068513;28;20616;-86
2021/12/13 10:01:04;;;;;;;14.52;10.95;;;;;;;9.46;100.00;102048.25;5069319;28;20450;-86
2021/12/13 10:03:34;;;;;;;14.82;10.80;;;;;;;9.47;100.00;102051.78;5037442;28;20064;-86
2021/12/13 10:06:08;;;;;;;16.52;11.40;;;;;;;9.46;100.00;102040.41;5049427;28;20049;-85
2021/12/13 10:08:51;;;;;;;16.23;11.65;;;;;;;9.46;100.00;102032.56;5069099;28;20519;-86
2021/12/13 10:11:50;;;;;;;15.60;11.32;;;;;;;9.47;100.00;102036.97;5027056;28;20045;-85
2021/12/13 10:14:24;;;;;;;17.67;13.50;;;;;;;9.47;100.00;102031.72;5026813;28;20084;-85
2021/12/13 10:16:54;;;;;;;19.38;13.07;;;;;;;9.49;100.00;102034.38;5050494;28;20110;-86
2021/12/13 10:19:33;;;;;;;16.92;11.93;;;;;;;9.49;100.00;102030.03;5052882;28;20450;-85
2021/12/13 10:22:00;;;;;;;18.45;13.43;;;;;;;9.51;100.00;102025.69;5053052;28;20061;-86
2021/12/13 10:24:38;;;;;;;16.70;11.60;;;;;;;9.51;100.00;102030.06;5035067;28;20052;-86
2021/12/13 10:27:10;;;;;;;19.65;12.93;;;;;;;9.53;100.00;102033.56;5070940;28;20064;-86
2021/12/13 10:29:47;;;;;;;20.52;13.32;;;;;;;9.51;100.00;102040.50;5055065;28;20063;-86
2021/12/13 10:32:24;;;;;;;15.23;11.52;;;;;;;9.54;100.00;102035.31;5039999;28;20559;-86
2021/12/13 10:34:59;;;;;;;16.38;11.77;;;;;;;9.55;100.00;102040.56;5066892;28;20533;-87
2021/12/13 10:37:38;;;;;;;18.55;12.20;;;;;;;9.59;100.00;102031.97;5059240;28;20045;-86
2021/12/13 10:40:27;;;;;;;17.63;12.68;;;;;;;9.64;99.59;102036.38;5069628;28;20049;-86
2021/12/13 10:43:04;;;;;;;17.90;11.50;;;;;;;9.67;99.36;102028.59;5039002;28;20044;-86
2021/12/13 10:45:39;;;;;;;14.23;10.93;;;;;;;9.70;98.84;102033.84;5039510;28;20531;-86
2021/12/13 10:48:11;;;;;;;18.67;11.98;;;;;;;9.71;99.04;102028.66;5052452;28;20133;-86
2021/12/13 10:50:50;;;;;;;13.10;10.27;;;;;;;9.75;98.54;102032.19;5036057;28;20483;-86
2021/12/13 10:53:25;;;;;;;15.07;10.48;;;;;;;9.73;98.13;102032.19;5020820;28;20586;-86
2021/12/13 10:56:02;;;;;;;14.68;10.57;;;;;;;9.73;97.63;102034.78;5051227;28;20049;-86
2021/12/13 10:58:40;;;;;;;16.85;10.32;;;;;;;9.75;97.59;102035.72;5054927;28;20041;-86
2021/12/13 11:01:15;;;;;;;13.75;10.60;;;;;;;9.74;97.64;102027.84;5050362;28;20063;-87
2021/12/13 11:03:43;;;;;;;13.88;10.00;;;;;;;9.72;97.78;102026.94;5055131;28;20045;-86
2021/12/13 11:06:12;;;;;;;13.88;9.95;;;;;;;9.73;96.70;102029.56;5052771;28;20053;-86
2021/12/13 11:08:42;;;;;;;14.57;10.27;;;;;;;9.68;96.82;102035.56;5069478;28;20166;-86
2021/12/13 11:11:32;;;;;;;14.85;10.57;;;;;;;9.66;98.05;102032.03;5068035;28;20440;-86
2021/12/13 11:14:08;;;;;;;14.55;10.25;;;;;;;9.64;98.12;102031.16;5058093;28;20542;-86
2021/12/13 11:16:43;;;;;;;15.77;11.55;;;;;;;9.60;97.66;102030.22;5054430;28;20157;-85
2021/12/13 11:19:18;;;;;;;19.30;12.55;;;;;;;9.58;98.29;102034.53;5047947;28;20500;-86
2021/12/13 11:21:49;;;;;;;16.27;11.20;;;;;;;9.58;98.23;102035.44;5047855;28;20098;-85
2021/12/13 11:24:21;;;;;;;16.23;10.93;;;;;;;9.59;98.15;102033.69;5060168;28;20052;-86
2021/12/13 11:26:55;;;;;;;13.30;10.48;;;;;;;9.58;98.39;102026.69;5068362;28;20045;-85
2021/12/13 11:29:23;;;;;;;16.05;10.88;;;;;;;9.59;97.88;102031.06;5047301;28;20053;-86
2021/12/13 11:32:37;;;;;;;13.90;10.50;;;;;;;9.56;98.23;102033.63;5046880;28;20080;-86
2021/12/13 11:36:12;;;;;;;21.42;10.35;;;;;;;9.57;96.18;102032.78;5034245;28;20973;-86
2021/12/13 11:39:40;;;;;;;15.23;9.70;;;;;;;9.54;96.86;102035.31;5029213;28;20045;-86
2021/12/13 11:42:50;;;;;;;15.15;10.55;;;;;;;9.53;96.57;102036.19;5030490;28;20585;-86
2021/12/13 11:46:26;;;;;;;13.65;10.30;;;;;;;9.54;96.25;102027.50;5030542;28;20088;-86
2021/12/13 11:50:10;;;;;;;16.90;10.82;;;;;;;9.48;96.72;102032.59;5030582;28;20076;-86
2021/12/13 11:53:20;;;;;;;21.23;12.15;;;;;;;9.47;96.60;102031.72;5056243;28;20052;-85
2021/12/13 11:56:36;;;;;;;16.73;10.30;;;;;;;9.46;96.62;102019.50;5036207;28;20060;-86
2021/12/13 11:59:59;;;;;;;19.13;11.93;;;;;;;9.43;96.60;102025.56;5032470;28;20099;-86
2021/12/13 12:03:36;;;;;;;17.75;11.07;;;;;;;9.42;96.51;102036.84;5033253;28;20064;-85
2021/12/13 12:07:13;;;;;;;21.10;11.13;;;;;;;9.39;96.70;102026.38;5031449;28;20080;-86
2021/12/13 12:10:22;;;;;;;17.33;10.95;;;;;;;9.37;97.18;102029.81;5029177;28;20376;-86
2021/12/13 12:13:29;;;;;;;23.30;11.65;;;;;;;9.37;97.41;102020.25;5027375;28;20423;-86
2021/12/13 12:16:16;;;;;;;18.80;12.18;;;;;;;9.34;97.16;102021.91;5028287;28;20147;-86
2021/12/13 12:19:05;;;;;;;17.33;11.18;;;;;;;9.33;97.40;102020.16;5053905;28;20506;-85
2021/12/13 12:22:00;;;;;;;19.02;12.60;;;;;;;9.32;97.16;102018.38;5025109;28;20049;-86